createdAt,value
2022-10-19T00:02:19.903Z,6.60
2022-10-19T00:05:05.162Z,6.07
2022-10-19T00:07:50.217Z,6.20
2022-10-19T00:10:35.521Z,6.00
2022-10-19T00:13:20.264Z,6.20
2022-10-19T00:16:12.936Z,6.33
2022-10-19T00:18:59.386Z,6.18
2022-10-19T00:21:44.930Z,6.45
2022-10-19T00:24:29.601Z,6.22
2022-10-19T00:27:14.483Z,6.05
2022-10-19T00:29:59.680Z,6.23
2022-10-19T00:32:44.823Z,5.20
2022-10-19T00:35:30.449Z,5.65
2022-10-19T00:38:19.105Z,5.57
2022-10-19T00:41:04.078Z,6.03
2022-10-19T00:43:57.946Z,5.20
2022-10-19T00:46:44.970Z,5.18
2022-10-19T00:49:33.760Z,5.80
2022-10-19T00:52:21.627Z,5.07
2022-10-19T00:55:08.869Z,5.78
2022-10-19T00:57:54.183Z,5.63
2022-10-19T01:00:39.348Z,5.38
2022-10-19T01:03:24.858Z,5.47
2022-10-19T01:06:01.220Z,5.43
2022-10-19T01:08:46.130Z,5.30
2022-10-19T01:11:39.827Z,5.03
2022-10-19T01:14:58.967Z,4.65
2022-10-19T01:18:04.878Z,4.50
2022-10-19T01:21:01.021Z,5.03
2022-10-19T01:24:09.257Z,5.82
2022-10-19T01:27:16.050Z,4.50
2022-10-19T01:30:02.817Z,4.28
2022-10-19T01:33:03.404Z,5.45
2022-10-19T01:36:02.570Z,4.95
2022-10-19T01:38:58.478Z,4.93
2022-10-19T01:42:05.860Z,4.77
2022-10-19T01:45:16.963Z,5.03
2022-10-19T01:48:09.910Z,5.22
2022-10-19T01:51:39.351Z,5.00
2022-10-19T01:54:27.355Z,5.00
2022-10-19T01:57:17.635Z,5.33
2022-10-19T02:00:07.348Z,5.78
2022-10-19T02:02:54.449Z,5.97
2022-10-19T02:05:41.661Z,5.55
2022-10-19T02:08:30.888Z,5.55
2022-10-19T02:11:16.915Z,5.27
2022-10-19T02:14:09.344Z,5.30
2022-10-19T02:17:08.011Z,5.60
2022-10-19T02:19:53.990Z,5.00
2022-10-19T02:22:39.350Z,4.90
2022-10-19T02:25:25.296Z,5.10
2022-10-19T02:28:10.590Z,4.47
2022-10-19T02:30:56.058Z,5.20
2022-10-19T02:33:40.915Z,5.13
2022-10-19T02:36:26.102Z,5.45
2022-10-19T02:39:11.114Z,5.13
2022-10-19T02:42:16.933Z,5.18
2022-10-19T02:45:07.856Z,5.53
2022-10-19T02:47:58.186Z,4.53
2022-10-19T02:50:44.674Z,4.88
2022-10-19T02:53:29.459Z,4.70
2022-10-19T02:56:14.238Z,5.15
2022-10-19T02:58:59.507Z,4.45
2022-10-19T03:01:44.607Z,4.57
2022-10-19T03:04:29.715Z,4.53
2022-10-19T03:07:17.258Z,4.30
2022-10-19T03:10:02.334Z,4.30
2022-10-19T03:12:47.161Z,4.57
2022-10-19T03:15:32.070Z,4.28
2022-10-19T03:18:17.239Z,4.55
2022-10-19T03:21:07.796Z,4.13
2022-10-19T03:23:52.540Z,4.50
2022-10-19T03:26:37.895Z,4.40
2022-10-19T03:29:22.881Z,4.18
2022-10-19T03:32:07.780Z,4.40
2022-10-19T03:34:52.858Z,4.20
2022-10-19T03:37:37.985Z,4.40
2022-10-19T03:40:23.033Z,4.43
2022-10-19T03:43:07.843Z,4.35
2022-10-19T03:45:52.980Z,4.57
2022-10-19T03:48:38.093Z,4.07
2022-10-19T03:51:26.642Z,4.85
2022-10-19T03:54:15.044Z,4.50
2022-10-19T03:57:00.174Z,4.28
2022-10-19T03:59:45.280Z,4.15
2022-10-19T04:02:30.783Z,4.00
2022-10-19T04:05:15.724Z,3.83
2022-10-19T04:08:00.758Z,4.18
2022-10-19T04:10:45.830Z,3.88
2022-10-19T04:13:31.489Z,3.97
2022-10-19T04:16:17.137Z,4.00
2022-10-19T04:19:02.015Z,4.00
2022-10-19T04:21:49.009Z,4.10
2022-10-19T04:24:33.829Z,3.85
2022-10-19T04:27:19.095Z,4.20
2022-10-19T04:30:04.791Z,4.70
2022-10-19T04:32:49.950Z,4.40
2022-10-19T04:35:35.247Z,4.30
2022-10-19T04:38:20.323Z,5.63
2022-10-19T04:41:07.227Z,4.63
2022-10-19T04:43:57.942Z,5.43
2022-10-19T04:46:43.022Z,5.75
2022-10-19T04:49:28.056Z,5.90
2022-10-19T04:52:12.818Z,5.60
2022-10-19T04:54:57.944Z,6.60
2022-10-19T04:57:43.358Z,6.30
2022-10-19T05:00:28.209Z,6.55
2022-10-19T05:03:13.004Z,6.82
2022-10-19T05:05:59.198Z,7.40
2022-10-19T05:08:44.090Z,7.78
2022-10-19T05:11:29.474Z,8.77
2022-10-19T05:14:14.585Z,7.97
2022-10-19T05:16:59.795Z,7.90
2022-10-19T05:19:44.880Z,9.18
2022-10-19T05:22:30.108Z,9.00
2022-10-19T05:25:15.562Z,8.63
2022-10-19T05:28:00.672Z,9.23
2022-10-19T05:30:48.921Z,8.25
2022-10-19T05:33:33.996Z,8.70
2022-10-19T05:36:26.055Z,9.43
2022-10-19T05:39:16.820Z,8.20
2022-10-19T05:42:02.177Z,8.68
2022-10-19T05:44:47.141Z,8.60
2022-10-19T05:47:34.041Z,7.43
2022-10-19T05:50:19.091Z,8.13
2022-10-19T05:53:03.879Z,8.20
2022-10-19T05:55:49.053Z,7.57
2022-10-19T05:58:35.259Z,7.10
2022-10-19T06:01:20.442Z,7.30
2022-10-19T06:04:07.145Z,8.05
2022-10-19T06:06:52.255Z,7.83
2022-10-19T06:09:37.462Z,7.57
2022-10-19T06:12:24.941Z,7.25
2022-10-19T06:15:10.536Z,6.80
2022-10-19T06:17:55.732Z,6.47
2022-10-19T06:20:42.329Z,6.30
2022-10-19T06:23:27.486Z,5.70
2022-10-19T06:26:14.208Z,6.28
2022-10-19T06:29:00.491Z,6.70
2022-10-19T06:31:46.336Z,6.10
2022-10-19T06:34:31.118Z,7.07
2022-10-19T06:37:16.271Z,6.90
2022-10-19T06:40:04.854Z,7.72
2022-10-19T06:42:51.788Z,6.03
2022-10-19T06:45:38.374Z,7.47
2022-10-19T06:48:23.563Z,6.17
2022-10-19T06:51:08.553Z,7.53
2022-10-19T06:53:57.105Z,6.82
2022-10-19T06:56:42.694Z,7.65
2022-10-19T06:59:27.707Z,7.53
2022-10-19T07:02:13.136Z,6.77
2022-10-19T07:04:58.159Z,7.70
2022-10-19T07:07:43.464Z,6.85
2022-10-19T07:10:28.294Z,7.30
2022-10-19T07:13:13.905Z,6.70
2022-10-19T07:16:07.527Z,7.17
2022-10-19T07:18:53.423Z,7.75
2022-10-19T07:21:41.511Z,7.10
2022-10-19T07:24:26.436Z,6.38
2022-10-19T07:27:11.698Z,5.22
2022-10-19T07:29:56.679Z,5.50
2022-10-19T07:32:45.968Z,6.25
2022-10-19T07:35:32.322Z,6.50
2022-10-19T07:38:17.168Z,6.93
2022-10-19T07:41:05.060Z,7.13
2022-10-19T07:43:51.191Z,7.23
2022-10-19T07:46:39.294Z,8.02
2022-10-19T07:49:24.079Z,7.47
2022-10-19T07:52:08.917Z,6.85
2022-10-19T07:54:55.316Z,6.32
2022-10-19T07:57:42.567Z,7.33
2022-10-19T08:00:29.952Z,7.00
2022-10-19T08:06:19.916Z,7.03
2022-10-19T08:09:05.746Z,7.53
2022-10-19T08:11:50.860Z,7.77
2022-10-19T08:14:36.043Z,7.70
2022-10-19T08:17:21.214Z,7.97
2022-10-19T08:20:07.587Z,6.97
2022-10-19T08:22:56.448Z,9.82
2022-10-19T08:25:43.869Z,9.37
2022-10-19T08:28:28.672Z,7.80
2022-10-19T08:31:16.507Z,9.32
2022-10-19T08:34:02.080Z,9.02
2022-10-19T08:36:47.594Z,9.15
2022-10-19T08:39:32.532Z,10.33
2022-10-19T08:42:27.536Z,9.07
2022-10-19T08:45:31.295Z,9.98
2022-10-19T08:48:29.236Z,10.13
2022-10-19T08:51:14.303Z,10.82
2022-10-19T08:54:04.752Z,9.87
2022-10-19T08:57:24.960Z,7.45
2022-10-19T09:00:28.656Z,6.97
2022-10-19T09:04:01.298Z,5.82
2022-10-19T09:06:51.330Z,6.07
2022-10-19T09:09:43.906Z,7.10
2022-10-19T09:12:41.216Z,6.18
2022-10-19T09:15:38.450Z,7.30
2022-10-19T09:18:32.192Z,6.70
2022-10-19T09:21:31.048Z,6.65
2022-10-19T09:24:37.571Z,6.73
2022-10-19T09:27:25.602Z,6.80
2022-10-19T09:30:19.161Z,6.57
2022-10-19T09:33:15.259Z,6.03
2022-10-19T09:36:03.018Z,6.32
2022-10-19T09:38:48.225Z,5.90
2022-10-19T09:41:33.667Z,5.60
2022-10-19T09:44:19.250Z,5.80
2022-10-19T09:47:32.566Z,5.25
2022-10-19T09:50:26.558Z,5.22
2022-10-19T09:53:20.110Z,5.17
2022-10-19T09:56:07.900Z,5.55
2022-10-19T09:58:57.114Z,5.82
2022-10-19T10:01:43.808Z,5.88
2022-10-19T10:04:30.252Z,4.95
2022-10-19T10:07:18.582Z,4.97
2022-10-19T10:10:11.289Z,4.97
2022-10-19T10:12:59.316Z,4.15
2022-10-19T10:15:49.450Z,4.38
2022-10-19T10:18:49.804Z,4.15
2022-10-19T10:21:45.501Z,3.60
2022-10-19T10:24:32.490Z,3.88
2022-10-19T10:27:30.302Z,4.10
2022-10-19T10:30:18.314Z,3.50
2022-10-19T10:33:15.752Z,3.97
2022-10-19T10:36:09.940Z,2.90
2022-10-19T10:39:08.221Z,4.13
2022-10-19T10:41:54.035Z,3.53
2022-10-19T10:44:47.651Z,3.58
2022-10-19T10:47:33.281Z,3.40
2022-10-19T10:50:25.138Z,3.40
2022-10-19T10:53:43.140Z,3.35
2022-10-19T10:56:30.138Z,3.60
2022-10-19T10:59:29.708Z,3.40
2022-10-19T11:02:31.651Z,3.28
2022-10-19T11:05:24.515Z,3.60
2022-10-19T11:08:15.908Z,4.00
2022-10-19T11:11:30.337Z,3.65
2022-10-19T11:14:37.335Z,3.72
2022-10-19T11:17:27.940Z,3.47
2022-10-19T11:20:16.228Z,4.30
2022-10-19T11:23:13.483Z,3.40
2022-10-19T11:26:19.578Z,4.05
2022-10-19T11:29:38.479Z,3.60
2022-10-19T11:32:47.877Z,3.65
2022-10-19T11:35:36.017Z,3.10
2022-10-19T11:38:42.999Z,3.60
2022-10-19T11:42:15.281Z,3.47
2022-10-19T11:45:15.758Z,3.67
2022-10-19T11:48:40.382Z,3.25
2022-10-19T11:51:57.281Z,3.40
2022-10-19T11:55:07.466Z,3.42
2022-10-19T11:58:07.449Z,3.95
2022-10-19T12:01:29.470Z,3.40
2022-10-19T12:04:28.515Z,3.50
2022-10-19T12:07:49.881Z,2.97
2022-10-19T12:11:06.585Z,3.38
2022-10-19T12:13:56.827Z,3.25
2022-10-19T12:16:46.195Z,3.33
2022-10-19T12:19:40.729Z,3.35
2022-10-19T12:22:28.995Z,3.40
2022-10-19T12:25:17.429Z,3.55
2022-10-19T12:28:03.726Z,3.78
2022-10-19T12:30:49.595Z,3.33
2022-10-19T12:33:53.347Z,3.50
2022-10-19T12:36:46.931Z,2.63
2022-10-19T12:39:53.400Z,3.05
2022-10-19T12:42:52.750Z,3.13
2022-10-19T12:46:02.791Z,2.80
2022-10-19T12:49:26.259Z,2.78
2022-10-19T12:52:12.500Z,3.40
2022-10-19T12:55:34.890Z,3.30
2022-10-19T12:58:22.806Z,2.92
2022-10-19T13:01:11.707Z,2.78
2022-10-19T13:04:19.196Z,3.05
2022-10-19T13:07:08.179Z,3.00
2022-10-19T13:10:01.632Z,3.28
2022-10-19T13:12:47.876Z,2.80
2022-10-19T13:15:35.892Z,3.20
2022-10-19T13:18:58.428Z,2.78
2022-10-19T13:21:48.918Z,3.00
2022-10-19T13:24:36.303Z,3.05
2022-10-19T13:27:25.067Z,2.90
2022-10-19T13:30:38.264Z,2.67
2022-10-19T13:33:28.269Z,2.90
2022-10-19T13:36:13.822Z,2.77
2022-10-19T13:38:58.840Z,2.97
2022-10-19T13:41:46.867Z,2.63
2022-10-19T13:44:37.374Z,3.10
2022-10-19T13:50:40.066Z,2.80
2022-10-19T13:53:45.447Z,9.45
2022-10-19T13:56:56.177Z,3.33
2022-10-19T14:00:00.101Z,2.70
2022-10-19T14:02:50.868Z,2.72
2022-10-19T14:05:51.532Z,2.30
2022-10-19T14:09:04.833Z,2.47
2022-10-19T14:11:52.852Z,3.05
2022-10-19T14:14:43.321Z,2.95
2022-10-19T14:17:34.047Z,2.53
2022-10-19T14:20:25.788Z,2.53
2022-10-19T14:23:24.012Z,2.75
2022-10-19T14:26:20.425Z,2.50
2022-10-19T14:29:05.746Z,2.80
2022-10-19T14:31:52.799Z,2.70
2022-10-19T14:34:46.883Z,3.23
2022-10-19T14:37:32.584Z,2.65
2022-10-19T14:40:27.811Z,2.63
2022-10-19T14:43:23.515Z,2.50
2022-10-19T14:46:08.225Z,3.28
2022-10-19T14:49:00.641Z,2.40
2022-10-19T14:51:50.928Z,2.90
2022-10-19T14:54:44.308Z,2.90
2022-10-19T14:57:34.992Z,2.40
2022-10-19T15:00:22.952Z,2.65
2022-10-19T15:03:12.411Z,2.73
2022-10-19T15:06:04.171Z,2.95
2022-10-19T15:11:46.695Z,3.10
2022-10-19T15:14:32.283Z,2.72
2022-10-19T15:17:27.020Z,2.30
2022-10-19T15:20:26.203Z,2.90
2022-10-19T15:23:29.734Z,3.00
2022-10-19T15:26:26.289Z,2.38
2022-10-19T15:29:21.889Z,2.30
2022-10-19T15:32:21.464Z,2.27
2022-10-19T15:35:12.844Z,2.47
2022-10-19T15:38:03.913Z,2.38
2022-10-19T15:40:49.382Z,2.42
2022-10-19T15:43:43.187Z,2.20
2022-10-19T15:46:55.907Z,2.40
2022-10-19T15:49:40.744Z,2.50
2022-10-19T15:52:29.066Z,2.30
2022-10-19T15:55:17.180Z,2.20
2022-10-19T15:58:02.189Z,2.00
2022-10-19T16:00:47.456Z,2.27
2022-10-19T16:03:32.612Z,2.30
2022-10-19T16:06:19.433Z,2.38
2022-10-19T16:09:04.733Z,2.30
2022-10-19T16:11:56.162Z,2.60
2022-10-19T16:14:41.427Z,2.33
2022-10-19T16:17:26.930Z,3.50
2022-10-19T16:20:12.659Z,2.63
2022-10-19T16:22:58.147Z,2.08
2022-10-19T16:25:43.089Z,2.80
2022-10-19T16:28:27.913Z,3.40
2022-10-19T16:31:13.015Z,3.33
2022-10-19T16:33:58.113Z,3.15
2022-10-19T16:36:43.410Z,2.72
2022-10-19T16:39:28.528Z,2.70
2022-10-19T16:42:13.643Z,2.97
2022-10-19T16:44:58.954Z,2.30
2022-10-19T16:47:45.209Z,2.80
2022-10-19T16:50:30.333Z,3.10
2022-10-19T16:53:14.998Z,3.22
2022-10-19T16:56:08.301Z,2.60
2022-10-19T16:58:55.151Z,2.55
2022-10-19T17:01:41.751Z,2.60
2022-10-19T17:04:26.887Z,2.60
2022-10-19T17:07:12.838Z,3.33
2022-10-19T17:09:57.924Z,2.73
2022-10-19T17:12:43.032Z,2.67
2022-10-19T17:15:42.468Z,2.97
2022-10-19T17:18:28.136Z,3.10
2022-10-19T17:21:17.340Z,3.38
2022-10-19T17:24:03.100Z,2.80
2022-10-19T17:26:49.281Z,3.20
2022-10-19T17:29:34.514Z,3.17
2022-10-19T17:32:19.324Z,3.17
2022-10-19T17:35:04.973Z,2.90
2022-10-19T17:37:50.268Z,2.90
2022-10-19T17:40:35.331Z,2.78
2022-10-19T17:43:21.738Z,2.65
2022-10-19T17:46:09.144Z,3.00
2022-10-19T17:48:56.054Z,2.63
2022-10-19T17:51:40.997Z,2.90
2022-10-19T17:54:26.267Z,2.72
2022-10-19T17:57:11.556Z,2.65
2022-10-19T17:59:56.674Z,3.40
2022-10-19T18:02:44.285Z,3.08
2022-10-19T18:05:29.064Z,2.60
2022-10-19T18:08:14.082Z,2.60
2022-10-19T18:11:01.188Z,2.60
2022-10-19T18:13:47.788Z,3.00
2022-10-19T18:16:35.442Z,4.97
2022-10-19T18:19:20.504Z,5.70
2022-10-19T18:22:05.634Z,2.90
2022-10-19T18:24:50.735Z,3.42
2022-10-19T18:27:36.196Z,2.72
2022-10-19T18:30:21.349Z,2.70
2022-10-19T18:33:06.508Z,2.50
2022-10-19T18:35:52.219Z,2.53
2022-10-19T18:38:38.536Z,2.60
2022-10-19T18:41:25.409Z,2.60
2022-10-19T18:44:12.951Z,3.03
2022-10-19T18:46:58.070Z,2.87
2022-10-19T18:49:43.199Z,3.00
2022-10-19T18:52:27.975Z,3.13
2022-10-19T18:55:13.204Z,3.10
2022-10-19T18:57:58.096Z,3.30
2022-10-19T19:00:45.583Z,2.67
2022-10-19T19:03:31.018Z,2.40
2022-10-19T19:06:29.942Z,3.00
2022-10-19T19:09:15.246Z,3.92
2022-10-19T19:12:01.028Z,3.10
2022-10-19T19:14:46.112Z,3.17
2022-10-19T19:17:31.260Z,3.63
2022-10-19T19:20:16.317Z,5.93
2022-10-19T19:23:01.466Z,6.13
2022-10-19T19:25:46.654Z,9.50
2022-10-19T19:28:31.784Z,5.00
2022-10-19T19:31:16.527Z,3.38
2022-10-19T19:34:03.243Z,2.88
2022-10-19T19:36:49.035Z,3.17
2022-10-19T19:39:34.427Z,3.17
2022-10-19T19:42:20.802Z,3.10
2022-10-19T19:45:07.661Z,3.13
2022-10-19T19:47:52.515Z,2.50
2022-10-19T19:50:38.266Z,2.83
2022-10-19T19:53:23.127Z,3.17
2022-10-19T19:56:10.144Z,3.00
2022-10-19T19:58:57.343Z,2.83
2022-10-19T20:01:42.638Z,2.90
2022-10-19T20:04:27.819Z,3.10
2022-10-19T20:07:12.957Z,2.80
2022-10-19T20:09:58.047Z,3.37
2022-10-19T20:12:47.012Z,2.83
2022-10-19T20:15:32.135Z,2.85
2022-10-19T20:18:17.268Z,3.35
2022-10-19T20:21:03.362Z,2.80
2022-10-19T20:23:48.419Z,2.57
2022-10-19T20:26:33.358Z,2.20
2022-10-19T20:29:18.208Z,2.83
2022-10-19T20:32:03.439Z,3.10
2022-10-19T20:34:48.516Z,2.78
2022-10-19T20:37:33.882Z,3.03
2022-10-19T20:40:19.077Z,3.22
2022-10-19T20:43:04.060Z,2.75
2022-10-19T20:45:49.147Z,2.60
2022-10-19T20:48:34.652Z,2.58
2022-10-19T20:51:30.530Z,2.40
2022-10-19T20:54:17.011Z,2.95
2022-10-19T20:57:02.445Z,2.63
2022-10-19T20:59:48.852Z,3.22
2022-10-19T21:02:33.941Z,2.58
2022-10-19T21:05:19.039Z,3.33
2022-10-19T21:08:04.357Z,2.92
2022-10-19T21:10:49.183Z,3.22
2022-10-19T21:13:34.319Z,3.58
2022-10-19T21:16:21.172Z,4.28
2022-10-19T21:19:10.109Z,3.20
2022-10-19T21:22:03.060Z,3.63
2022-10-19T21:24:47.825Z,3.33
2022-10-19T21:27:33.435Z,3.80
2022-10-19T21:30:18.449Z,3.45
2022-10-19T21:33:03.563Z,3.20
2022-10-19T21:38:38.809Z,3.45
2022-10-19T21:41:26.398Z,4.57
2022-10-19T21:44:11.866Z,3.58
2022-10-19T21:46:56.959Z,3.97
2022-10-19T21:49:42.015Z,3.47
2022-10-19T21:52:26.750Z,3.60
2022-10-19T21:55:12.078Z,3.42
2022-10-19T21:57:57.250Z,4.80
2022-10-19T22:00:43.445Z,5.07
2022-10-19T22:03:28.303Z,3.65
2022-10-19T22:06:13.983Z,5.07
2022-10-19T22:08:59.991Z,3.50
2022-10-19T22:11:45.020Z,4.28
2022-10-19T22:14:30.022Z,4.50
2022-10-19T22:17:14.980Z,3.95
2022-10-19T22:20:00.138Z,3.90
2022-10-19T22:22:45.271Z,3.45
2022-10-19T22:25:31.188Z,3.90
2022-10-19T22:28:16.122Z,3.77
2022-10-19T22:31:01.203Z,4.20
2022-10-19T22:33:46.288Z,3.72
2022-10-19T22:36:31.352Z,3.63
2022-10-19T22:39:16.550Z,3.80
2022-10-19T22:42:01.712Z,3.33
2022-10-19T22:44:46.839Z,3.78
2022-10-19T22:47:32.144Z,3.83
2022-10-19T22:50:17.104Z,3.78
2022-10-19T22:53:02.384Z,4.20
2022-10-19T22:55:47.420Z,3.60
2022-10-19T22:58:32.443Z,3.50
2022-10-19T23:01:17.730Z,3.38
2022-10-19T23:04:02.802Z,3.78
2022-10-19T23:06:48.007Z,4.80
2022-10-19T23:09:33.110Z,3.67
2022-10-19T23:12:18.153Z,3.88
2022-10-19T23:15:03.561Z,4.63
2022-10-19T23:17:48.494Z,4.10
2022-10-19T23:20:33.674Z,4.25
2022-10-19T23:23:18.388Z,4.40
2022-10-19T23:26:10.000Z,3.60
2022-10-19T23:28:54.783Z,4.80
2022-10-19T23:31:39.976Z,4.63
2022-10-19T23:34:24.937Z,4.32
2022-10-19T23:37:09.981Z,4.50
2022-10-19T23:39:55.074Z,4.15
2022-10-19T23:42:40.432Z,4.88
2022-10-19T23:45:25.183Z,4.55
2022-10-19T23:48:10.325Z,4.47
2022-10-19T23:50:58.169Z,4.27
2022-10-19T23:53:45.915Z,4.90
2022-10-19T23:56:31.147Z,4.72
2022-10-19T23:59:16.187Z,4.40
